createdAt,value
2023-05-11T00:01:09.926Z,99497.69
2023-05-11T00:03:37.396Z,99498.13
2023-05-11T00:06:04.614Z,99502.31
2023-05-11T00:08:32.102Z,99500.06
2023-05-11T00:11:02.484Z,99494.56
2023-05-11T00:13:29.886Z,99500.38
2023-05-11T00:15:57.229Z,99489.88
2023-05-11T00:18:24.710Z,99498.38
2023-05-11T00:20:51.972Z,99495.19
2023-05-11T00:23:19.456Z,99490.16
2023-05-11T00:25:46.578Z,99492.91
2023-05-11T00:28:13.998Z,99490.91
2023-05-11T00:30:41.461Z,99491.44
2023-05-11T00:33:08.910Z,99487.91
2023-05-11T00:35:36.222Z,99483.03
2023-05-11T00:38:03.886Z,99492.25
2023-05-11T00:40:34.913Z,99483.25
2023-05-11T00:43:02.329Z,99497.84
2023-05-11T00:45:30.426Z,99489.72
2023-05-11T00:47:58.608Z,99486.03
2023-05-11T00:50:27.113Z,99495.50
2023-05-11T00:52:55.985Z,99486.47
2023-05-11T00:55:23.305Z,99492.25
2023-05-11T00:57:51.036Z,99491.50
2023-05-11T01:00:18.593Z,99493.00
2023-05-11T01:02:46.581Z,99490.75
2023-05-11T01:05:14.126Z,99487.06
2023-05-11T01:08:11.806Z,99492.41
2023-05-11T01:11:12.205Z,99493.66
2023-05-11T01:13:50.604Z,99491.44
2023-05-11T01:16:26.745Z,99487.53
2023-05-11T01:19:44.767Z,99490.88
2023-05-11T01:23:06.939Z,99498.97
2023-05-11T01:26:32.318Z,99497.56
2023-05-11T01:29:40.064Z,99503.31
2023-05-11T01:32:20.657Z,99507.47
2023-05-11T01:34:59.767Z,99500.50
2023-05-11T01:37:31.493Z,99508.72
2023-05-11T01:40:05.379Z,99502.56
2023-05-11T01:42:41.899Z,99505.06
2023-05-11T01:45:13.076Z,99508.78
2023-05-11T01:47:45.225Z,99502.22
2023-05-11T01:50:14.441Z,99505.34
2023-05-11T01:52:43.926Z,99503.91
2023-05-11T01:55:15.680Z,99502.50
2023-05-11T01:57:45.416Z,99494.31
2023-05-11T02:00:16.682Z,99503.34
2023-05-11T02:02:49.275Z,99513.88
2023-05-11T02:05:22.846Z,99510.59
2023-05-11T02:07:54.325Z,99512.66
2023-05-11T02:10:26.713Z,99503.84
2023-05-11T02:12:56.350Z,99512.75
2023-05-11T02:15:26.475Z,99509.06
2023-05-11T02:17:55.939Z,99519.38
2023-05-11T02:20:25.201Z,99514.47
2023-05-11T02:22:54.417Z,99514.06
2023-05-11T02:25:23.724Z,99517.38
2023-05-11T02:27:51.658Z,99515.59
2023-05-11T02:30:19.889Z,99513.50
2023-05-11T02:32:56.316Z,99524.84
2023-05-11T02:35:30.290Z,99519.09
2023-05-11T02:38:03.818Z,99519.50
2023-05-11T02:40:48.063Z,99518.31
2023-05-11T02:43:24.828Z,99527.78
2023-05-11T02:46:14.648Z,99523.69
2023-05-11T02:48:54.341Z,99523.28
2023-05-11T02:51:33.243Z,99524.50
2023-05-11T02:54:02.715Z,99523.31
2023-05-11T02:56:35.875Z,99521.88
2023-05-11T02:59:03.750Z,99519.84
2023-05-11T03:01:31.659Z,99525.59
2023-05-11T03:03:59.191Z,99524.19
2023-05-11T03:06:29.370Z,99524.59
2023-05-11T03:08:57.062Z,99523.38
2023-05-11T03:11:26.561Z,99526.47
2023-05-11T03:13:54.519Z,99525.03
2023-05-11T03:16:23.666Z,99529.94
2023-05-11T03:18:52.105Z,99529.53
2023-05-11T03:21:22.328Z,99530.41
2023-05-11T03:23:50.561Z,99531.19
2023-05-11T03:26:21.386Z,99534.06
2023-05-11T03:28:53.232Z,99538.59
2023-05-11T03:31:20.612Z,99536.13
2023-05-11T03:33:48.748Z,99541.06
2023-05-11T03:36:17.926Z,99542.06
2023-05-11T03:38:48.733Z,99547.19
2023-05-11T03:41:20.298Z,99539.81
2023-05-11T03:43:54.353Z,99533.25
2023-05-11T03:46:24.992Z,99534.88
2023-05-11T03:48:53.841Z,99531.19
2023-05-11T03:51:25.506Z,99536.72
2023-05-11T03:53:53.173Z,99535.25
2023-05-11T03:56:21.582Z,99536.28
2023-05-11T03:58:49.690Z,99533.16
2023-05-11T04:01:17.093Z,99539.06
2023-05-11T04:03:54.052Z,99528.97
2023-05-11T04:06:23.391Z,99536.56
2023-05-11T04:08:59.147Z,99543.28
2023-05-11T04:11:27.823Z,99543.66
2023-05-11T04:13:55.595Z,99535.13
2023-05-11T04:16:22.749Z,99537.72
2023-05-11T04:18:50.245Z,99536.03
2023-05-11T04:21:17.366Z,99542.91
2023-05-11T04:23:44.801Z,99541.78
2023-05-11T04:26:12.515Z,99541.81
2023-05-11T04:28:40.010Z,99537.09
2023-05-11T04:31:07.786Z,99535.50
2023-05-11T04:33:35.185Z,99534.69
2023-05-11T04:36:02.455Z,99539.44
2023-05-11T04:38:30.916Z,99530.00
2023-05-11T04:40:58.043Z,99534.72
2023-05-11T04:43:25.499Z,99526.09
2023-05-11T04:45:52.851Z,99524.63
2023-05-11T04:48:28.454Z,99525.72
2023-05-11T04:50:56.819Z,99527.19
2023-05-11T04:53:28.738Z,99531.75
2023-05-11T04:55:55.965Z,99533.97
2023-05-11T04:58:23.353Z,99536.50
2023-05-11T05:00:50.775Z,99540.50
2023-05-11T05:03:19.675Z,99529.25
2023-05-11T05:05:46.973Z,99538.47
2023-05-11T05:08:14.502Z,99542.75
2023-05-11T05:10:41.679Z,99544.09
2023-05-11T05:13:09.198Z,99537.81
2023-05-11T05:15:36.288Z,99534.25
2023-05-11T05:18:04.035Z,99533.31
2023-05-11T05:20:31.824Z,99536.91
2023-05-11T05:22:59.209Z,99535.41
2023-05-11T05:25:26.512Z,99537.81
2023-05-11T05:27:53.953Z,99540.84
2023-05-11T05:30:21.346Z,99527.03
2023-05-11T05:32:49.727Z,99533.09
2023-05-11T05:35:16.907Z,99531.78
2023-05-11T05:37:44.641Z,99529.63
2023-05-11T05:40:12.111Z,99527.50
2023-05-11T05:42:46.037Z,99532.16
2023-05-11T05:45:16.117Z,99529.16
2023-05-11T05:47:43.970Z,99530.50
2023-05-11T05:50:11.797Z,99521.19
2023-05-11T05:52:42.388Z,99532.84
2023-05-11T05:55:10.302Z,99524.38
2023-05-11T05:57:39.340Z,99531.22
2023-05-11T06:00:09.612Z,99529.34
2023-05-11T06:02:43.065Z,99530.47
2023-05-11T06:05:19.609Z,99529.41
2023-05-11T06:07:57.983Z,99528.91
2023-05-11T06:10:29.683Z,99520.78
2023-05-11T06:12:57.170Z,99526.13
2023-05-11T06:15:27.083Z,99523.94
2023-05-11T06:18:00.350Z,99524.44
2023-05-11T06:20:28.353Z,99527.13
2023-05-11T06:22:55.832Z,99528.22
2023-05-11T06:25:23.281Z,99525.13
2023-05-11T06:27:51.446Z,99523.38
2023-05-11T06:30:19.413Z,99521.97
2023-05-11T06:32:49.138Z,99522.44
2023-05-11T06:35:19.198Z,99520.16
2023-05-11T06:37:46.979Z,99513.59
2023-05-11T06:40:16.638Z,99514.66
2023-05-11T06:42:44.259Z,99514.97
2023-05-11T06:45:12.112Z,99513.22
2023-05-11T06:47:42.597Z,99511.88
2023-05-11T06:50:10.408Z,99506.69
2023-05-11T06:52:38.389Z,99510.28
2023-05-11T06:55:06.425Z,99516.34
2023-05-11T06:57:33.796Z,99508.25
2023-05-11T07:00:00.917Z,99503.22
2023-05-11T07:02:28.534Z,99501.63
2023-05-11T07:04:55.865Z,99503.31
2023-05-11T07:07:23.542Z,99492.53
2023-05-11T07:09:50.902Z,99501.38
2023-05-11T07:12:18.349Z,99498.34
2023-05-11T07:14:45.528Z,99496.72
2023-05-11T07:17:12.958Z,99500.63
2023-05-11T07:19:40.237Z,99492.13
2023-05-11T07:22:07.659Z,99485.50
2023-05-11T07:24:34.854Z,99483.31
2023-05-11T07:27:02.347Z,99488.31
2023-05-11T07:29:29.620Z,99488.63
2023-05-11T07:31:57.189Z,99491.19
2023-05-11T07:34:24.668Z,99481.59
2023-05-11T07:36:51.997Z,99483.63
2023-05-11T07:39:19.409Z,99484.00
2023-05-11T07:41:47.228Z,99483.41
2023-05-11T07:44:14.560Z,99481.19
2023-05-11T07:46:42.047Z,99477.03
2023-05-11T07:49:17.127Z,99477.22
2023-05-11T07:51:52.100Z,99475.22
2023-05-11T07:54:21.044Z,99471.34
2023-05-11T07:56:50.364Z,99471.75
2023-05-11T07:59:17.617Z,99470.91
2023-05-11T08:01:45.034Z,99471.25
2023-05-11T08:04:12.208Z,99461.56
2023-05-11T08:06:40.059Z,99465.06
2023-05-11T08:09:07.178Z,99464.84
2023-05-11T08:11:34.764Z,99461.81
2023-05-11T08:14:03.368Z,99464.56
2023-05-11T08:16:30.780Z,99460.63
2023-05-11T08:18:58.124Z,99454.25
2023-05-11T08:21:26.334Z,99448.38
2023-05-11T08:23:53.461Z,99458.53
2023-05-11T08:26:21.455Z,99455.34
2023-05-11T08:28:48.863Z,99449.25
2023-05-11T13:57:24.529Z,99231.72
2023-05-11T13:59:52.051Z,99231.72
2023-05-11T14:02:19.424Z,99225.56
2023-05-11T14:04:46.889Z,99227.81
2023-05-11T14:07:15.256Z,99225.28
2023-05-11T14:09:43.824Z,99221.41
2023-05-11T14:12:10.862Z,99227.50
2023-05-11T14:14:38.202Z,99226.00
2023-05-11T14:17:06.149Z,99225.91
2023-05-11T14:19:33.852Z,99233.19
2023-05-11T14:22:01.100Z,99232.72
2023-05-11T14:24:28.499Z,99219.44
2023-05-11T14:26:55.501Z,99219.50
2023-05-11T14:29:22.675Z,99217.34
2023-05-11T14:31:50.057Z,99216.94
2023-05-11T14:34:17.354Z,99221.41
2023-05-11T14:36:44.374Z,99222.84
2023-05-11T14:39:11.700Z,99218.03
2023-05-11T14:41:38.713Z,99217.06
2023-05-11T14:44:06.093Z,99223.00
2023-05-11T14:46:33.047Z,99220.81
2023-05-11T14:49:00.329Z,99211.78
2023-05-11T14:51:27.563Z,99224.47
2023-05-11T14:53:54.371Z,99220.09
2023-05-11T14:56:23.397Z,99219.50
2023-05-11T14:58:50.438Z,99213.16
2023-05-11T15:01:17.970Z,99221.22
2023-05-11T15:03:45.110Z,99216.91
2023-05-11T15:06:20.816Z,99213.97
2023-05-11T15:08:49.382Z,99211.53
2023-05-11T15:11:17.893Z,99221.81
2023-05-11T15:13:47.487Z,99213.28
2023-05-11T15:16:15.474Z,99225.06
2023-05-11T15:18:43.200Z,99215.56
2023-05-11T15:21:11.562Z,99214.75
2023-05-11T15:23:38.517Z,99223.81
2023-05-11T15:26:05.957Z,99215.78
2023-05-11T15:28:32.935Z,99211.28
2023-05-11T15:31:00.193Z,99209.03
2023-05-11T15:33:27.131Z,99212.00
2023-05-11T15:35:54.545Z,99218.91
2023-05-11T15:38:21.653Z,99224.63
2023-05-11T15:40:48.879Z,99220.28
2023-05-11T15:43:15.761Z,99226.50
2023-05-11T15:45:43.744Z,99222.81
2023-05-11T15:48:12.133Z,99227.16
2023-05-11T15:50:39.354Z,99226.97
2023-05-11T15:53:06.372Z,99228.22
2023-05-11T15:55:34.360Z,99223.53
2023-05-11T15:58:01.326Z,99238.13
2023-05-11T16:00:28.543Z,99231.44
2023-05-11T16:02:55.546Z,99231.34
2023-05-11T16:05:22.711Z,99228.09
2023-05-11T16:07:50.793Z,99228.22
2023-05-11T16:10:18.231Z,99232.25
2023-05-11T16:12:46.072Z,99219.66
2023-05-11T16:15:13.399Z,99230.59
2023-05-11T16:17:40.350Z,99231.78
2023-05-11T16:20:08.464Z,99230.72
2023-05-11T16:22:37.243Z,99230.00
2023-05-11T16:25:05.896Z,99232.03
2023-05-11T16:27:32.859Z,99241.03
2023-05-11T16:30:01.223Z,99234.41
2023-05-11T16:32:33.177Z,99241.13
2023-05-11T16:35:00.498Z,99235.84
2023-05-11T16:37:27.424Z,99238.47
2023-05-11T16:39:54.586Z,99239.63
2023-05-11T16:42:22.707Z,99249.91
2023-05-11T16:44:51.405Z,99247.75
2023-05-11T16:47:18.370Z,99249.63
2023-05-11T16:49:45.633Z,99247.09
2023-05-11T16:52:12.634Z,99245.72
2023-05-11T16:54:40.028Z,99253.78
2023-05-11T16:57:07.195Z,99270.97
2023-05-11T16:59:34.639Z,99256.34
2023-05-11T17:02:02.127Z,99258.34
2023-05-11T17:04:29.379Z,99254.81
2023-05-11T17:06:56.697Z,99269.66
2023-05-11T17:09:23.868Z,99265.16
2023-05-11T17:11:51.307Z,99267.53
2023-05-11T17:14:18.496Z,99273.88
2023-05-11T17:16:45.573Z,99273.19
2023-05-11T17:19:12.903Z,99270.94
2023-05-11T17:21:40.013Z,99282.72
2023-05-11T17:24:08.534Z,99275.75
2023-05-11T17:26:47.227Z,99279.22
2023-05-11T17:29:18.530Z,99277.13
2023-05-11T17:31:48.774Z,99281.47
2023-05-11T17:34:17.764Z,99281.63
2023-05-11T17:36:44.862Z,99282.22
2023-05-11T17:39:12.665Z,99285.44
2023-05-11T17:41:39.850Z,99282.19
2023-05-11T17:44:07.278Z,99288.34
2023-05-11T17:46:34.608Z,99286.63
2023-05-11T17:49:03.091Z,99290.59
2023-05-11T17:51:30.044Z,99300.06
2023-05-11T17:53:57.337Z,99293.69
2023-05-11T17:56:24.389Z,99296.69
2023-05-11T17:58:51.869Z,99304.53
2023-05-11T18:01:19.663Z,99306.28
2023-05-11T18:03:47.425Z,99315.63
2023-05-11T18:06:14.686Z,99317.41
2023-05-11T18:08:42.548Z,99314.44
2023-05-11T18:11:10.897Z,99313.50
2023-05-11T18:13:38.644Z,99320.75
2023-05-11T18:16:05.866Z,99316.78
2023-05-11T18:18:33.504Z,99330.09
2023-05-11T18:21:08.159Z,99331.84
2023-05-11T18:23:35.449Z,99338.00
2023-05-11T18:26:03.481Z,99335.06
2023-05-11T18:28:31.088Z,99335.34
2023-05-11T18:30:58.256Z,99347.91
2023-05-11T18:33:25.643Z,99353.88
2023-05-11T18:35:52.780Z,99353.41
2023-05-11T18:38:20.338Z,99348.00
2023-05-11T18:40:47.685Z,99352.94
2023-05-11T18:43:15.241Z,99355.91
2023-05-11T18:45:44.193Z,99362.19
2023-05-11T18:48:11.604Z,99362.69
2023-05-11T18:50:39.640Z,99366.53
2023-05-11T18:53:07.066Z,99366.25
2023-05-11T18:55:45.061Z,99382.25
2023-05-11T18:58:20.166Z,99380.88
2023-05-11T19:00:48.638Z,99382.53
2023-05-11T19:03:22.450Z,99386.00
2023-05-11T19:05:50.715Z,99392.53
2023-05-11T19:08:18.550Z,99385.47
2023-05-11T19:10:47.850Z,99392.25
2023-05-11T19:13:15.107Z,99390.34
2023-05-11T19:15:42.317Z,99398.72
2023-05-11T19:18:09.633Z,99399.56
2023-05-11T19:20:39.123Z,99403.31
2023-05-11T19:23:06.765Z,99398.44
2023-05-11T19:25:33.776Z,99411.41
2023-05-11T19:28:01.426Z,99403.50
2023-05-11T19:30:28.432Z,99404.31
2023-05-11T19:32:56.760Z,99412.94
2023-05-11T19:35:23.986Z,99412.38
2023-05-11T19:37:51.318Z,99418.81
2023-05-11T19:40:44.404Z,99419.94
2023-05-11T19:43:07.906Z,99413.41
2023-05-11T19:45:37.303Z,99413.97
2023-05-11T19:48:05.005Z,99417.19
2023-05-11T19:50:32.219Z,99411.22
2023-05-11T19:52:59.548Z,99423.09
2023-05-11T19:55:26.595Z,99421.50
2023-05-11T19:57:53.882Z,99425.25
2023-05-11T20:00:25.000Z,99421.97
2023-05-11T20:02:53.566Z,99427.81
2023-05-11T20:05:20.865Z,99430.50
2023-05-11T20:07:48.330Z,99429.44
2023-05-11T20:10:15.455Z,99432.00
2023-05-11T20:12:42.779Z,99429.16
2023-05-11T20:15:10.635Z,99437.56
2023-05-11T20:17:39.365Z,99436.19
2023-05-11T20:20:08.508Z,99441.59
2023-05-11T20:22:37.028Z,99443.13
2023-05-11T20:25:11.653Z,99437.69
2023-05-11T20:27:45.245Z,99445.13
2023-05-11T20:30:12.924Z,99443.13
2023-05-11T20:35:28.134Z,99439.50
2023-05-11T20:37:55.719Z,99443.81
2023-05-11T20:40:22.813Z,99441.34
2023-05-11T20:42:50.078Z,99438.00
2023-05-11T20:45:17.291Z,99435.78
2023-05-11T20:47:44.817Z,99440.66
2023-05-11T20:50:14.254Z,99436.25
2023-05-11T20:52:41.512Z,99437.00
2023-05-11T20:55:08.850Z,99436.72
2023-05-11T20:57:36.299Z,99436.41
2023-05-11T21:00:07.339Z,99432.00
2023-05-11T21:02:35.039Z,99443.72
2023-05-11T21:05:02.874Z,99441.75
2023-05-11T21:07:30.246Z,99439.19
2023-05-11T21:09:57.299Z,99443.47
2023-05-11T21:12:24.636Z,99444.13
2023-05-11T21:14:51.484Z,99443.53
2023-05-11T21:17:19.039Z,99447.22
2023-05-11T21:19:48.586Z,99446.84
2023-05-11T21:22:15.796Z,99444.94
2023-05-11T21:24:43.014Z,99450.00
2023-05-11T21:27:10.102Z,99441.69
2023-05-11T21:29:37.321Z,99449.91
2023-05-11T21:32:05.106Z,99448.69
2023-05-11T21:34:32.579Z,99451.00
2023-05-11T21:36:59.815Z,99449.78
2023-05-11T21:39:27.024Z,99453.31
2023-05-11T21:41:54.129Z,99454.50
2023-05-11T21:44:21.425Z,99461.75
2023-05-11T21:46:48.628Z,99455.72
2023-05-11T21:49:16.194Z,99453.94
2023-05-11T21:51:43.114Z,99452.94
2023-05-11T21:54:10.378Z,99444.66
2023-05-11T21:56:37.470Z,99453.22
2023-05-11T21:59:04.751Z,99451.16
2023-05-11T22:01:31.897Z,99448.06
2023-05-11T22:04:01.114Z,99450.28
2023-05-11T22:06:28.398Z,99453.69
2023-05-11T22:08:55.839Z,99455.81
2023-05-11T22:11:22.738Z,99450.66
2023-05-11T22:13:50.017Z,99451.66
2023-05-11T22:16:17.224Z,99446.28
2023-05-11T22:18:44.671Z,99450.75
2023-05-11T22:21:11.709Z,99452.63
2023-05-11T22:23:38.920Z,99455.22
2023-05-11T22:26:06.083Z,99457.16
2023-05-11T22:28:33.377Z,99459.63
2023-05-11T22:31:00.710Z,99459.75
2023-05-11T22:33:28.250Z,99454.63
2023-05-11T22:35:55.606Z,99458.63
2023-05-11T22:38:23.188Z,99460.72
2023-05-11T22:40:50.154Z,99461.59
2023-05-11T22:43:17.661Z,99459.69
2023-05-11T22:45:44.743Z,99464.28
2023-05-11T22:48:12.092Z,99461.50
2023-05-11T22:50:46.561Z,99465.13
2023-05-11T22:53:14.618Z,99468.28
2023-05-11T22:55:42.147Z,99472.94
2023-05-11T22:58:09.403Z,99477.28
2023-05-11T23:00:36.698Z,99472.38
2023-05-11T23:03:04.343Z,99472.25
2023-05-11T23:05:31.680Z,99478.81
2023-05-11T23:07:59.915Z,99485.94
2023-05-11T23:10:28.557Z,99484.41
2023-05-11T23:12:56.429Z,99477.41
2023-05-11T23:15:23.405Z,99475.31
2023-05-11T23:17:50.846Z,99480.56
2023-05-11T23:20:18.097Z,99476.34
2023-05-11T23:22:45.645Z,99475.44
2023-05-11T23:25:12.540Z,99480.56
2023-05-11T23:27:39.768Z,99485.25
2023-05-11T23:30:07.652Z,99483.59
2023-05-11T23:32:34.913Z,99479.75
2023-05-11T23:35:01.847Z,99486.38
2023-05-11T23:37:29.093Z,99484.19
2023-05-11T23:39:56.058Z,99479.97
2023-05-11T23:42:23.327Z,99476.59
2023-05-11T23:44:50.383Z,99481.63
2023-05-11T23:47:17.634Z,99475.91
2023-05-11T23:49:44.662Z,99477.06
2023-05-11T23:52:12.198Z,99473.09
2023-05-11T23:54:39.088Z,99467.84
2023-05-11T23:57:06.546Z,99470.28
2023-05-11T23:59:33.764Z,99474.81
